Terminal Aerodrome Forecast
Issued by NWS

Home | Current Version | Previous Version | Text Only | Print | Product List | Glossary On
Versions: 1 2 3 4 5 6 7 8 9 10 11 12 13 14 15 16 17 18 19 20 21 22 23 24 25 26 27 28 29 30
000
FTUS46 KOTX 260914 AAA
TAFSFF
TAF AMD
KSFF 260914Z 2609/2706 21005KT 6SM -SN SCT020 OVC050
     FM261100 23003KT 3SM -SN SCT010 OVC020
     FM261400 21003KT 1 1/2SM -SN BR OVC012
     FM262000 00000KT 4SM -SN OVC015
     FM270200 04003KT 6SM -SHSN BKN015 OVC022=

USA.gov is the U.S. government's official web portal to all federal, state and local government web resources and services.